sensor_id;sensor_type;location;lat;lon;timestamp;pressure;altitude;pressure_sealevel;temperature;humidity
82249;BME280;71851;49.092;18.918;2024-01-30T00:00:26;99373.66;;;-0.02;80.61
82249;BME280;71851;49.092;18.918;2024-01-30T00:03:26;99377.00;;;0.00;81.06
82249;BME280;71851;49.092;18.918;2024-01-30T00:06:27;99374.91;;;0.08;82.16
82249;BME280;71851;49.092;18.918;2024-01-30T00:09:28;99369.81;;;0.07;80.31
82249;BME280;71851;49.092;18.918;2024-01-30T00:12:28;99375.56;;;-0.07;81.08
82249;BME280;71851;49.092;18.918;2024-01-30T00:15:28;99365.06;;;-0.03;80.51
82249;BME280;71851;49.092;18.918;2024-01-30T00:18:29;99372.81;;;-0.03;80.80
82249;BME280;71851;49.092;18.918;2024-01-30T00:21:29;99365.69;;;-0.18;80.59
82249;BME280;71851;49.092;18.918;2024-01-30T00:24:30;99374.38;;;-0.62;82.14
82249;BME280;71851;49.092;18.918;2024-01-30T00:27:30;99378.78;;;-0.44;81.87
82249;BME280;71851;49.092;18.918;2024-01-30T00:30:30;99373.81;;;-0.27;80.41
82249;BME280;71851;49.092;18.918;2024-01-30T00:33:32;99371.63;;;-0.16;80.94
82249;BME280;71851;49.092;18.918;2024-01-30T00:36:32;99383.59;;;-0.35;82.71
82249;BME280;71851;49.092;18.918;2024-01-30T00:39:34;99384.16;;;-0.07;80.87
82249;BME280;71851;49.092;18.918;2024-01-30T00:42:34;99380.91;;;0.09;81.13
82249;BME280;71851;49.092;18.918;2024-01-30T00:45:35;99374.47;;;0.19;80.25
82249;BME280;71851;49.092;18.918;2024-01-30T00:48:35;99372.41;;;0.07;80.21
82249;BME280;71851;49.092;18.918;2024-01-30T00:51:35;99371.09;;;-0.04;81.77
82249;BME280;71851;49.092;18.918;2024-01-30T00:54:36;99367.31;;;0.05;81.73
82249;BME280;71851;49.092;18.918;2024-01-30T00:57:37;99365.84;;;0.20;81.28
82249;BME280;71851;49.092;18.918;2024-01-30T01:00:37;99365.75;;;0.21;81.09
82249;BME280;71851;49.092;18.918;2024-01-30T01:03:38;99366.13;;;0.12;81.84
82249;BME280;71851;49.092;18.918;2024-01-30T01:06:38;99357.31;;;-0.03;81.77
82249;BME280;71851;49.092;18.918;2024-01-30T01:09:39;99350.47;;;-0.04;82.80
82249;BME280;71851;49.092;18.918;2024-01-30T01:12:40;99364.28;;;-0.05;82.79
82249;BME280;71851;49.092;18.918;2024-01-30T01:15:40;99350.53;;;-0.05;82.96
82249;BME280;71851;49.092;18.918;2024-01-30T01:18:40;99363.19;;;0.01;82.01
82249;BME280;71851;49.092;18.918;2024-01-30T01:21:41;99363.63;;;0.11;80.65
82249;BME280;71851;49.092;18.918;2024-01-30T01:24:41;99355.81;;;0.12;80.47
82249;BME280;71851;49.092;18.918;2024-01-30T01:27:42;99356.03;;;0.08;79.44
82249;BME280;71851;49.092;18.918;2024-01-30T01:30:43;99362.47;;;-0.23;79.29
82249;BME280;71851;49.092;18.918;2024-01-30T01:33:43;99357.50;;;-0.27;79.73
82249;BME280;71851;49.092;18.918;2024-01-30T01:36:44;99352.47;;;-0.30;79.80
82249;BME280;71851;49.092;18.918;2024-01-30T01:39:44;99347.41;;;-0.33;78.91
82249;BME280;71851;49.092;18.918;2024-01-30T01:42:45;99358.81;;;-0.80;81.85
82249;BME280;71851;49.092;18.918;2024-01-30T01:45:45;99353.50;;;-0.56;81.96
82249;BME280;71851;49.092;18.918;2024-01-30T01:48:46;99352.56;;;-0.33;81.47
82249;BME280;71851;49.092;18.918;2024-01-30T01:51:48;99350.34;;;-0.21;83.84
82249;BME280;71851;49.092;18.918;2024-01-30T01:54:48;99347.75;;;-0.21;85.73
82249;BME280;71851;49.092;18.918;2024-01-30T01:57:49;99355.34;;;-0.18;85.99
82249;BME280;71851;49.092;18.918;2024-01-30T02:00:50;99343.72;;;-0.06;87.30
82249;BME280;71851;49.092;18.918;2024-01-30T02:03:51;99343.06;;;-0.11;86.99
82249;BME280;71851;49.092;18.918;2024-01-30T02:06:52;99352.47;;;-0.10;86.67
82249;BME280;71851;49.092;18.918;2024-01-30T02:09:52;99347.84;;;-0.02;86.76
82249;BME280;71851;49.092;18.918;2024-01-30T02:12:53;99347.44;;;-0.13;85.33
82249;BME280;71851;49.092;18.918;2024-01-30T02:15:53;99347.00;;;-0.03;85.59
82249;BME280;71851;49.092;18.918;2024-01-30T02:18:56;99350.53;;;-0.05;84.40
82249;BME280;71851;49.092;18.918;2024-01-30T02:21:57;99334.22;;;-0.06;83.62
82249;BME280;71851;49.092;18.918;2024-01-30T02:24:58;99342.09;;;0.12;80.80
82249;BME280;71851;49.092;18.918;2024-01-30T02:27:58;99347.94;;;-0.05;81.43
82249;BME280;71851;49.092;18.918;2024-01-30T02:30:59;99345.03;;;0.03;83.40
82249;BME280;71851;49.092;18.918;2024-01-30T02:33:59;99345.13;;;0.01;95.56
82249;BME280;71851;49.092;18.918;2024-01-30T02:37:00;99344.22;;;-0.18;85.33
82249;BME280;71851;49.092;18.918;2024-01-30T02:40:00;99348.72;;;-0.23;84.04
82249;BME280;71851;49.092;18.918;2024-01-30T02:43:01;99352.22;;;-0.24;84.25
82249;BME280;71851;49.092;18.918;2024-01-30T02:46:02;99344.06;;;-0.35;86.65
82249;BME280;71851;49.092;18.918;2024-01-30T02:49:02;99343.63;;;-0.66;86.92
82249;BME280;71851;49.092;18.918;2024-01-30T02:52:03;99351.66;;;-0.52;85.95
82249;BME280;71851;49.092;18.918;2024-01-30T02:55:05;99344.22;;;-0.81;85.23
82249;BME280;71851;49.092;18.918;2024-01-30T02:58:06;99337.97;;;-0.76;86.81
82249;BME280;71851;49.092;18.918;2024-01-30T03:01:07;99342.72;;;-0.87;84.81
82249;BME280;71851;49.092;18.918;2024-01-30T03:04:07;99333.13;;;-0.83;84.55
82249;BME280;71851;49.092;18.918;2024-01-30T03:07:08;99336.38;;;-0.78;84.59
82249;BME280;71851;49.092;18.918;2024-01-30T03:10:09;99329.13;;;-0.69;84.32
82249;BME280;71851;49.092;18.918;2024-01-30T03:13:10;99327.81;;;-0.79;84.59
82249;BME280;71851;49.092;18.918;2024-01-30T03:16:10;99325.69;;;-0.69;84.36
82249;BME280;71851;49.092;18.918;2024-01-30T03:19:11;99332.34;;;-0.86;86.10
82249;BME280;71851;49.092;18.918;2024-01-30T03:22:11;99328.28;;;-0.91;88.73
82249;BME280;71851;49.092;18.918;2024-01-30T03:25:12;99336.50;;;-0.81;85.55
82249;BME280;71851;49.092;18.918;2024-01-30T03:28:13;99333.69;;;-0.75;84.23
82249;BME280;71851;49.092;18.918;2024-01-30T03:31:15;99327.41;;;-0.68;83.25
82249;BME280;71851;49.092;18.918;2024-01-30T03:34:16;99326.66;;;-0.72;82.81
82249;BME280;71851;49.092;18.918;2024-01-30T03:37:16;99330.84;;;-0.69;81.90
82249;BME280;71851;49.092;18.918;2024-01-30T03:40:16;99333.44;;;-0.69;81.58
82249;BME280;71851;49.092;18.918;2024-01-30T03:43:17;99328.97;;;-0.66;81.03
82249;BME280;71851;49.092;18.918;2024-01-30T03:46:17;99318.28;;;-0.77;82.73
82249;BME280;71851;49.092;18.918;2024-01-30T03:49:18;99320.78;;;-0.97;81.95
82249;BME280;71851;49.092;18.918;2024-01-30T03:52:18;99333.53;;;-0.94;85.58
82249;BME280;71851;49.092;18.918;2024-01-30T03:55:19;99336.81;;;-1.12;87.39
82249;BME280;71851;49.092;18.918;2024-01-30T03:58:19;99321.97;;;-1.06;86.60
82249;BME280;71851;49.092;18.918;2024-01-30T04:01:19;99334.47;;;-1.18;85.52
82249;BME280;71851;49.092;18.918;2024-01-30T04:04:20;99319.88;;;-1.18;85.53
82249;BME280;71851;49.092;18.918;2024-01-30T04:07:21;99329.88;;;-1.10;85.17
82249;BME280;71851;49.092;18.918;2024-01-30T04:10:23;99332.84;;;-0.98;83.55
82249;BME280;71851;49.092;18.918;2024-01-30T04:13:25;99333.28;;;-0.87;82.00
82249;BME280;71851;49.092;18.918;2024-01-30T04:16:25;99327.50;;;-0.93;83.68
82249;BME280;71851;49.092;18.918;2024-01-30T04:19:26;99330.88;;;-0.91;83.36
82249;BME280;71851;49.092;18.918;2024-01-30T04:22:26;99330.84;;;-1.13;83.12
82249;BME280;71851;49.092;18.918;2024-01-30T04:25:27;99324.94;;;-1.15;83.63
82249;BME280;71851;49.092;18.918;2024-01-30T04:28:29;99331.56;;;-1.09;84.77
82249;BME280;71851;49.092;18.918;2024-01-30T04:31:31;99338.13;;;-1.24;86.22
82249;BME280;71851;49.092;18.918;2024-01-30T04:34:31;99335.72;;;-1.28;85.06
82249;BME280;71851;49.092;18.918;2024-01-30T04:37:32;99333.94;;;-1.26;86.68
82249;BME280;71851;49.092;18.918;2024-01-30T04:40:32;99340.19;;;-1.55;84.68
82249;BME280;71851;49.092;18.918;2024-01-30T04:43:32;99342.03;;;-1.58;82.60
82249;BME280;71851;49.092;18.918;2024-01-30T04:46:33;99340.34;;;-1.83;84.42
82249;BME280;71851;49.092;18.918;2024-01-30T04:49:36;99335.13;;;-1.58;84.11
82249;BME280;71851;49.092;18.918;2024-01-30T04:52:37;99340.66;;;-1.45;80.79
82249;BME280;71851;49.092;18.918;2024-01-30T04:55:37;99351.06;;;-1.72;84.42
82249;BME280;71851;49.092;18.918;2024-01-30T04:58:38;99338.03;;;-1.67;81.27
82249;BME280;71851;49.092;18.918;2024-01-30T05:01:38;99341.84;;;-1.54;80.55
82249;BME280;71851;49.092;18.918;2024-01-30T05:04:40;99341.03;;;-1.54;78.04
82249;BME280;71851;49.092;18.918;2024-01-30T05:07:41;99334.31;;;-1.58;78.02
82249;BME280;71851;49.092;18.918;2024-01-30T05:10:42;99333.63;;;-1.63;78.47
82249;BME280;71851;49.092;18.918;2024-01-30T05:13:42;99343.25;;;-1.68;77.42
82249;BME280;71851;49.092;18.918;2024-01-30T05:16:42;99345.13;;;-1.97;77.92
82249;BME280;71851;49.092;18.918;2024-01-30T05:19:46;99348.13;;;-1.86;77.98
82249;BME280;71851;49.092;18.918;2024-01-30T05:22:47;99343.94;;;-1.88;78.00
82249;BME280;71851;49.092;18.918;2024-01-30T05:25:47;99350.50;;;-1.80;77.81
82249;BME280;71851;49.092;18.918;2024-01-30T05:28:47;99351.97;;;-1.97;77.72
82249;BME280;71851;49.092;18.918;2024-01-30T05:31:50;99355.84;;;-1.86;77.69
82249;BME280;71851;49.092;18.918;2024-01-30T05:34:52;99356.34;;;-1.75;77.30
82249;BME280;71851;49.092;18.918;2024-01-30T05:37:52;99363.28;;;-1.77;76.78
82249;BME280;71851;49.092;18.918;2024-01-30T05:40:52;99370.16;;;-1.77;77.35
82249;BME280;71851;49.092;18.918;2024-01-30T05:43:53;99360.16;;;-1.86;76.74
82249;BME280;71851;49.092;18.918;2024-01-30T05:46:53;99353.66;;;-1.96;76.56
82249;BME280;71851;49.092;18.918;2024-01-30T05:49:54;99356.22;;;-1.96;77.01
82249;BME280;71851;49.092;18.918;2024-01-30T05:52:54;99358.28;;;-2.06;75.97
82249;BME280;71851;49.092;18.918;2024-01-30T05:55:54;99358.00;;;-1.98;76.79
82249;BME280;71851;49.092;18.918;2024-01-30T05:58:55;99366.69;;;-2.01;76.98
82249;BME280;71851;49.092;18.918;2024-01-30T06:01:55;99362.97;;;-2.17;77.25
82249;BME280;71851;49.092;18.918;2024-01-30T06:04:56;99374.06;;;-2.16;77.79
82249;BME280;71851;49.092;18.918;2024-01-30T06:07:57;99362.47;;;-2.03;77.87
82249;BME280;71851;49.092;18.918;2024-01-30T06:10:57;99373.19;;;-1.91;77.62
82249;BME280;71851;49.092;18.918;2024-01-30T06:13:58;99368.78;;;-1.87;77.14
82249;BME280;71851;49.092;18.918;2024-01-30T06:16:59;99370.56;;;-2.14;77.50
82249;BME280;71851;49.092;18.918;2024-01-30T06:19:59;99362.69;;;-1.85;77.28
82249;BME280;71851;49.092;18.918;2024-01-30T06:23:00;99378.06;;;-1.83;76.21
82249;BME280;71851;49.092;18.918;2024-01-30T06:26:00;99362.16;;;-1.94;75.03
82249;BME280;71851;49.092;18.918;2024-01-30T06:29:01;99367.16;;;-1.90;74.36
82249;BME280;71851;49.092;18.918;2024-01-30T06:32:01;99369.66;;;-1.88;75.02
82249;BME280;71851;49.092;18.918;2024-01-30T06:35:02;99374.66;;;-1.84;74.31
82249;BME280;71851;49.092;18.918;2024-01-30T06:38:03;99364.41;;;-1.85;74.58
82249;BME280;71851;49.092;18.918;2024-01-30T06:41:04;99363.47;;;-1.83;74.29
82249;BME280;71851;49.092;18.918;2024-01-30T06:44:06;99363.00;;;-1.69;74.03
82249;BME280;71851;49.092;18.918;2024-01-30T06:47:09;99363.69;;;-1.41;73.41
82249;BME280;71851;49.092;18.918;2024-01-30T06:50:11;99367.59;;;-1.31;73.52
82249;BME280;71851;49.092;18.918;2024-01-30T06:53:12;99361.66;;;-1.33;73.07
82249;BME280;71851;49.092;18.918;2024-01-30T06:56:12;99367.25;;;-1.22;72.65
82249;BME280;71851;49.092;18.918;2024-01-30T06:59:14;99362.41;;;-1.08;71.53
82249;BME280;71851;49.092;18.918;2024-01-30T07:02:15;99370.47;;;-0.94;71.78
82249;BME280;71851;49.092;18.918;2024-01-30T07:05:15;99363.75;;;-0.76;70.24
82249;BME280;71851;49.092;18.918;2024-01-30T07:08:17;99363.09;;;-0.59;70.22
82249;BME280;71851;49.092;18.918;2024-01-30T07:11:21;99369.56;;;-0.49;68.93
82249;BME280;71851;49.092;18.918;2024-01-30T07:14:23;99372.44;;;-0.35;68.99
82249;BME280;71851;49.092;18.918;2024-01-30T07:17:23;99369.16;;;-0.60;70.30
82249;BME280;71851;49.092;18.918;2024-01-30T07:20:24;99377.47;;;-0.54;70.32
82249;BME280;71851;49.092;18.918;2024-01-30T07:23:24;99381.63;;;-0.50;70.02
82249;BME280;71851;49.092;18.918;2024-01-30T07:26:25;99382.94;;;-0.40;69.66
82249;BME280;71851;49.092;18.918;2024-01-30T07:29:25;99381.41;;;-0.24;68.55
82249;BME280;71851;49.092;18.918;2024-01-30T07:32:25;99378.59;;;0.03;67.63
82249;BME280;71851;49.092;18.918;2024-01-30T07:35:26;99366.00;;;0.15;66.24
82249;BME280;71851;49.092;18.918;2024-01-30T07:38:26;99378.25;;;0.10;71.60
82249;BME280;71851;49.092;18.918;2024-01-30T07:41:27;99362.88;;;0.47;69.99
82249;BME280;71851;49.092;18.918;2024-01-30T07:44:27;99362.00;;;0.67;68.24
82249;BME280;71851;49.092;18.918;2024-01-30T07:47:27;99367.41;;;1.00;65.94
82249;BME280;71851;49.092;18.918;2024-01-30T07:50:28;99362.25;;;1.17;65.19
82249;BME280;71851;49.092;18.918;2024-01-30T07:53:28;99355.97;;;1.58;63.32
82249;BME280;71851;49.092;18.918;2024-01-30T07:56:28;99360.41;;;1.73;62.48
82249;BME280;71851;49.092;18.918;2024-01-30T07:59:29;99358.84;;;2.37;59.87
82249;BME280;71851;49.092;18.918;2024-01-30T08:02:30;99347.00;;;2.97;57.70
82249;BME280;71851;49.092;18.918;2024-01-30T08:05:30;99356.97;;;3.66;54.57
82249;BME280;71851;49.092;18.918;2024-01-30T08:08:32;99350.53;;;3.73;54.09
82249;BME280;71851;49.092;18.918;2024-01-30T08:11:32;99345.28;;;4.74;51.94
82249;BME280;71851;49.092;18.918;2024-01-30T08:14:32;99350.03;;;6.03;49.44
82249;BME280;71851;49.092;18.918;2024-01-30T08:17:34;99345.81;;;6.39;46.14
82249;BME280;71851;49.092;18.918;2024-01-30T08:20:35;99342.97;;;6.42;46.10
82249;BME280;71851;49.092;18.918;2024-01-30T08:23:38;99347.66;;;6.50;46.18
82249;BME280;71851;49.092;18.918;2024-01-30T08:26:39;99347.00;;;7.56;43.43
82249;BME280;71851;49.092;18.918;2024-01-30T08:29:39;99343.28;;;7.48;43.28
82249;BME280;71851;49.092;18.918;2024-01-30T08:32:39;99341.53;;;7.00;43.99
82249;BME280;71851;49.092;18.918;2024-01-30T08:35:40;99345.53;;;6.93;44.24
82249;BME280;71851;49.092;18.918;2024-01-30T08:38:41;99348.16;;;6.80;45.35
82249;BME280;71851;49.092;18.918;2024-01-30T08:41:41;99358.13;;;6.37;46.63
82249;BME280;71851;49.092;18.918;2024-01-30T08:44:42;99347.53;;;6.89;45.90
82249;BME280;71851;49.092;18.918;2024-01-30T08:47:42;99350.38;;;7.22;45.41
82249;BME280;71851;49.092;18.918;2024-01-30T08:50:44;99356.19;;;7.26;44.57
82249;BME280;71851;49.092;18.918;2024-01-30T08:53:44;99346.25;;;7.07;45.97
82249;BME280;71851;49.092;18.918;2024-01-30T08:56:45;99351.16;;;8.17;43.99
82249;BME280;71851;49.092;18.918;2024-01-30T08:59:45;99342.78;;;9.99;40.18
82249;BME280;71851;49.092;18.918;2024-01-30T09:02:46;99336.69;;;9.35;40.96
82249;BME280;71851;49.092;18.918;2024-01-30T09:05:47;99340.81;;;8.95;42.46
82249;BME280;71851;49.092;18.918;2024-01-30T09:08:47;99344.00;;;8.43;44.29
82249;BME280;71851;49.092;18.918;2024-01-30T09:11:47;99343.66;;;8.58;43.61
82249;BME280;71851;49.092;18.918;2024-01-30T09:14:48;99342.22;;;8.54;43.38
82249;BME280;71851;49.092;18.918;2024-01-30T09:17:48;99337.47;;;8.71;43.55
82249;BME280;71851;49.092;18.918;2024-01-30T09:20:48;99343.88;;;8.33;44.83
82249;BME280;71851;49.092;18.918;2024-01-30T09:23:49;99337.09;;;8.42;44.77
82249;BME280;71851;49.092;18.918;2024-01-30T09:26:49;99338.81;;;10.96;41.05
82249;BME280;71851;49.092;18.918;2024-01-30T09:29:50;99334.00;;;14.61;34.14
82249;BME280;71851;49.092;18.918;2024-01-30T09:32:51;99323.56;;;17.42;28.52
82249;BME280;71851;49.092;18.918;2024-01-30T09:35:51;99326.44;;;19.27;25.72
82249;BME280;71851;49.092;18.918;2024-01-30T09:38:52;99332.69;;;20.48;24.13
82249;BME280;71851;49.092;18.918;2024-01-30T09:42:02;99331.88;;;21.56;22.69
82249;BME280;71851;49.092;18.918;2024-01-30T09:45:05;99330.59;;;22.06;22.07
82249;BME280;71851;49.092;18.918;2024-01-30T09:48:06;99330.22;;;22.74;21.65
82249;BME280;71851;49.092;18.918;2024-01-30T09:51:08;99331.94;;;23.26;20.60
82249;BME280;71851;49.092;18.918;2024-01-30T09:54:09;99321.75;;;23.54;19.67
82249;BME280;71851;49.092;18.918;2024-01-30T09:57:11;99322.50;;;23.61;20.25
82249;BME280;71851;49.092;18.918;2024-01-30T10:00:12;99323.59;;;23.54;19.60
82249;BME280;71851;49.092;18.918;2024-01-30T10:03:13;99298.75;;;23.65;19.43
82249;BME280;71851;49.092;18.918;2024-01-30T10:06:15;99272.78;;;23.97;19.42
82249;BME280;71851;49.092;18.918;2024-01-30T10:09:17;99274.19;;;23.75;19.11
82249;BME280;71851;49.092;18.918;2024-01-30T10:12:17;99275.06;;;23.93;18.86
82249;BME280;71851;49.092;18.918;2024-01-30T10:15:18;99266.47;;;24.16;19.72
82249;BME280;71851;49.092;18.918;2024-01-30T10:18:19;99263.53;;;23.93;19.81
82249;BME280;71851;49.092;18.918;2024-01-30T10:21:19;99256.47;;;24.05;19.89
82249;BME280;71851;49.092;18.918;2024-01-30T10:24:24;99256.47;;;23.98;19.66
82249;BME280;71851;49.092;18.918;2024-01-30T10:27:28;99246.31;;;23.76;20.05
82249;BME280;71851;49.092;18.918;2024-01-30T10:30:29;99244.00;;;23.79;20.30
82249;BME280;71851;49.092;18.918;2024-01-30T10:33:30;99234.22;;;23.67;20.15
82249;BME280;71851;49.092;18.918;2024-01-30T10:36:40;99230.28;;;23.94;19.25
82249;BME280;71851;49.092;18.918;2024-01-30T10:39:46;99232.94;;;23.69;19.80
82249;BME280;71851;49.092;18.918;2024-01-30T10:42:46;99222.09;;;23.57;19.76
82249;BME280;71851;49.092;18.918;2024-01-30T10:45:49;99212.09;;;23.46;20.43
82249;BME280;71851;49.092;18.918;2024-01-30T10:48:56;99212.44;;;23.12;19.57
82249;BME280;71851;49.092;18.918;2024-01-30T10:51:58;99210.06;;;23.29;20.56
82249;BME280;71851;49.092;18.918;2024-01-30T10:55:01;99198.25;;;23.49;20.61
82249;BME280;71851;49.092;18.918;2024-01-30T10:58:01;99198.13;;;23.38;20.86
82249;BME280;71851;49.092;18.918;2024-01-30T11:01:03;99190.03;;;23.44;20.92
82249;BME280;71851;49.092;18.918;2024-01-30T11:04:04;99188.56;;;23.48;20.96
82249;BME280;71851;49.092;18.918;2024-01-30T11:07:18;99186.63;;;24.11;20.32
82249;BME280;71851;49.092;18.918;2024-01-30T11:10:18;99173.91;;;24.07;19.99
82249;BME280;71851;49.092;18.918;2024-01-30T11:13:19;99170.25;;;22.44;20.91
82249;BME280;71851;49.092;18.918;2024-01-30T11:16:20;99168.25;;;22.26;21.44
82249;BME280;71851;49.092;18.918;2024-01-30T11:19:27;99169.84;;;22.40;22.03
82249;BME280;71851;49.092;18.918;2024-01-30T11:22:31;99169.41;;;22.50;21.31
82249;BME280;71851;49.092;18.918;2024-01-30T11:25:31;99164.38;;;21.96;21.85
82249;BME280;71851;49.092;18.918;2024-01-30T11:28:37;99162.53;;;21.83;21.73
82249;BME280;71851;49.092;18.918;2024-01-30T11:31:38;99158.59;;;22.12;22.26
82249;BME280;71851;49.092;18.918;2024-01-30T11:34:41;99166.09;;;22.54;22.35
82249;BME280;71851;49.092;18.918;2024-01-30T11:37:42;99159.09;;;22.66;21.35
82249;BME280;71851;49.092;18.918;2024-01-30T11:40:45;99152.47;;;22.75;21.68
82249;BME280;71851;49.092;18.918;2024-01-30T11:43:55;99151.22;;;21.88;22.21
82249;BME280;71851;49.092;18.918;2024-01-30T11:46:55;99140.53;;;21.81;22.49
82249;BME280;71851;49.092;18.918;2024-01-30T11:49:56;99140.69;;;22.13;21.93
82249;BME280;71851;49.092;18.918;2024-01-30T11:52:58;99140.34;;;22.66;21.93
82249;BME280;71851;49.092;18.918;2024-01-30T11:55:59;99133.97;;;23.05;21.69
82249;BME280;71851;49.092;18.918;2024-01-30T11:59:01;99128.75;;;22.79;21.59
82249;BME280;71851;49.092;18.918;2024-01-30T12:02:01;99120.91;;;22.84;21.66
82249;BME280;71851;49.092;18.918;2024-01-30T12:05:05;99121.22;;;22.56;21.74
82249;BME280;71851;49.092;18.918;2024-01-30T12:08:06;99121.63;;;22.53;21.96
82249;BME280;71851;49.092;18.918;2024-01-30T12:11:07;99116.22;;;19.89;24.45
82249;BME280;71851;49.092;18.918;2024-01-30T12:14:07;99115.69;;;17.64;28.03
82249;BME280;71851;49.092;18.918;2024-01-30T12:17:08;99113.88;;;15.97;31.27
82249;BME280;71851;49.092;18.918;2024-01-30T12:20:11;99113.25;;;14.98;32.66
82249;BME280;71851;49.092;18.918;2024-01-30T12:23:12;99108.50;;;14.10;34.72
82249;BME280;71851;49.092;18.918;2024-01-30T12:26:13;99096.03;;;13.18;36.51
82249;BME280;71851;49.092;18.918;2024-01-30T12:29:14;99094.59;;;12.88;37.57
82249;BME280;71851;49.092;18.918;2024-01-30T12:32:15;99093.09;;;12.41;39.15
82249;BME280;71851;49.092;18.918;2024-01-30T12:35:18;99099.56;;;12.29;40.17
82249;BME280;71851;49.092;18.918;2024-01-30T12:38:19;99090.03;;;11.91;41.27
82249;BME280;71851;49.092;18.918;2024-01-30T12:41:20;99088.91;;;11.47;41.71
82249;BME280;71851;49.092;18.918;2024-01-30T12:44:20;99083.13;;;11.25;42.09
82249;BME280;71851;49.092;18.918;2024-01-30T12:47:21;99080.81;;;11.12;42.37
82249;BME280;71851;49.092;18.918;2024-01-30T12:50:22;99074.16;;;10.98;43.08
82249;BME280;71851;49.092;18.918;2024-01-30T12:53:22;99076.53;;;11.01;43.60
82249;BME280;71851;49.092;18.918;2024-01-30T12:56:23;99063.00;;;10.77;41.72
82249;BME280;71851;49.092;18.918;2024-01-30T12:59:24;99084.53;;;10.52;43.15
82249;BME280;71851;49.092;18.918;2024-01-30T13:02:24;99083.81;;;10.50;43.60
82249;BME280;71851;49.092;18.918;2024-01-30T13:05:26;99077.72;;;10.40;42.15
82249;BME280;71851;49.092;18.918;2024-01-30T13:08:27;99074.00;;;10.33;42.85
82249;BME280;71851;49.092;18.918;2024-01-30T13:11:27;99076.78;;;10.01;43.05
82249;BME280;71851;49.092;18.918;2024-01-30T13:14:28;99076.97;;;10.09;42.67
82249;BME280;71851;49.092;18.918;2024-01-30T13:17:28;99077.13;;;9.78;41.83
82249;BME280;71851;49.092;18.918;2024-01-30T13:20:29;99079.63;;;9.59;42.75
82249;BME280;71851;49.092;18.918;2024-01-30T13:23:29;99078.59;;;8.99;43.22
82249;BME280;71851;49.092;18.918;2024-01-30T13:26:32;99073.84;;;9.34;42.39
82249;BME280;71851;49.092;18.918;2024-01-30T13:29:32;99084.44;;;8.71;43.36
82249;BME280;71851;49.092;18.918;2024-01-30T13:32:32;99082.38;;;8.75;43.21
82249;BME280;71851;49.092;18.918;2024-01-30T13:35:33;99078.19;;;8.51;44.20
82249;BME280;71851;49.092;18.918;2024-01-30T13:38:33;99078.91;;;8.53;43.74
82249;BME280;71851;49.092;18.918;2024-01-30T13:41:34;99082.66;;;8.72;43.11
82249;BME280;71851;49.092;18.918;2024-01-30T13:44:35;99076.66;;;8.38;43.80
82249;BME280;71851;49.092;18.918;2024-01-30T13:47:41;99077.66;;;8.15;43.64
82249;BME280;71851;49.092;18.918;2024-01-30T13:50:41;99081.38;;;7.57;44.13
82249;BME280;71851;49.092;18.918;2024-01-30T13:53:41;99080.50;;;8.23;43.41
82249;BME280;71851;49.092;18.918;2024-01-30T13:56:42;99083.31;;;8.42;43.21
82249;BME280;71851;49.092;18.918;2024-01-30T13:59:42;99076.78;;;8.47;43.04
82249;BME280;71851;49.092;18.918;2024-01-30T14:02:43;99080.97;;;8.28;43.87
82249;BME280;71851;49.092;18.918;2024-01-30T14:05:44;99081.34;;;8.23;44.19
82249;BME280;71851;49.092;18.918;2024-01-30T14:08:44;99081.94;;;7.94;44.58
82249;BME280;71851;49.092;18.918;2024-01-30T14:11:45;99083.50;;;7.96;44.76
82249;BME280;71851;49.092;18.918;2024-01-30T14:14:45;99082.06;;;8.03;45.09
82249;BME280;71851;49.092;18.918;2024-01-30T14:17:45;99078.03;;;7.88;45.85
82249;BME280;71851;49.092;18.918;2024-01-30T14:20:48;99078.75;;;7.79;46.50
82249;BME280;71851;49.092;18.918;2024-01-30T14:23:49;99083.84;;;7.58;46.82
82249;BME280;71851;49.092;18.918;2024-01-30T14:26:49;99086.00;;;7.53;47.29
82249;BME280;71851;49.092;18.918;2024-01-30T14:29:50;99073.25;;;8.04;45.73
82249;BME280;71851;49.092;18.918;2024-01-30T14:32:50;99078.97;;;8.09;45.78
82249;BME280;71851;49.092;18.918;2024-01-30T14:35:51;99079.47;;;7.81;46.11
82249;BME280;71851;49.092;18.918;2024-01-30T14:38:51;99073.19;;;7.61;46.74
82249;BME280;71851;49.092;18.918;2024-01-30T14:41:52;99074.81;;;7.29;47.24
82249;BME280;71851;49.092;18.918;2024-01-30T14:44:52;99076.22;;;7.22;46.58
82249;BME280;71851;49.092;18.918;2024-01-30T14:47:53;99078.50;;;7.60;46.01
82249;BME280;71851;49.092;18.918;2024-01-30T14:50:55;99074.56;;;7.32;46.30
82249;BME280;71851;49.092;18.918;2024-01-30T14:53:56;99082.28;;;7.23;46.61
82249;BME280;71851;49.092;18.918;2024-01-30T14:56:56;99073.25;;;7.38;47.02
82249;BME280;71851;49.092;18.918;2024-01-30T14:59:57;99078.00;;;7.44;46.70
82249;BME280;71851;49.092;18.918;2024-01-30T15:02:58;99080.13;;;7.28;47.51
82249;BME280;71851;49.092;18.918;2024-01-30T15:05:59;99079.63;;;7.12;48.55
82249;BME280;71851;49.092;18.918;2024-01-30T15:08:59;99082.34;;;6.75;50.11
82249;BME280;71851;49.092;18.918;2024-01-30T15:11:59;99084.22;;;6.62;50.94
82249;BME280;71851;49.092;18.918;2024-01-30T15:15:00;99087.25;;;6.56;51.77
82249;BME280;71851;49.092;18.918;2024-01-30T15:18:00;99086.09;;;6.37;52.05
82249;BME280;71851;49.092;18.918;2024-01-30T15:21:01;99081.38;;;6.06;53.26
82249;BME280;71851;49.092;18.918;2024-01-30T15:24:02;99084.34;;;6.01;53.98
82249;BME280;71851;49.092;18.918;2024-01-30T15:27:03;99094.47;;;5.93;54.38
82249;BME280;71851;49.092;18.918;2024-01-30T15:30:04;99087.50;;;5.68;55.93
82249;BME280;71851;49.092;18.918;2024-01-30T15:33:05;99089.59;;;5.51;56.76
82249;BME280;71851;49.092;18.918;2024-01-30T15:36:05;99096.66;;;5.36;57.24
82249;BME280;71851;49.092;18.918;2024-01-30T15:39:06;99091.22;;;5.14;58.07
82249;BME280;71851;49.092;18.918;2024-01-30T15:42:07;99092.34;;;4.97;58.95
82249;BME280;71851;49.092;18.918;2024-01-30T15:45:08;99096.38;;;4.76;59.47
82249;BME280;71851;49.092;18.918;2024-01-30T15:48:08;99098.94;;;4.64;60.56